Time;durP1;ratioP1;P1;durP2;ratioP2;P2;SDS_P1;SDS_P2;PMS_P1;PMS_P2;Temp;Humidity;BMP_temperature;BMP_pressure;BME280_temperature;BME280_humidity;BME280_pressure;Samples;Min_cycle;Max_cycle;Signal;HPM_P1;HPM_P2
2021/04/09 00:01:58;;;;;;;12.20;4.97;;;;;;;22.17;16.22;98942.69;5064416;28;20135;-86
2021/04/09 00:04:24;;;;;;;12.85;6.10;;;;;;;21.80;16.18;98940.25;5069847;28;20086;-85
2021/04/09 00:06:50;;;;;;;13.02;5.10;;;;;;;22.07;16.48;98937.91;5068124;28;20029;-85
2021/04/09 00:09:17;;;;;;;10.77;4.60;;;;;;;21.92;16.10;98942.69;5052037;28;20021;-85
2021/04/09 00:11:43;;;;;;;9.55;4.47;;;;;;;21.69;16.46;98947.03;5066366;28;20037;-85
2021/04/09 00:14:11;;;;;;;9.75;5.05;;;;;;;21.62;16.50;98950.63;5063918;28;20115;-85
2021/04/09 00:16:39;;;;;;;11.25;4.70;;;;;;;21.78;16.29;98950.22;5067394;28;20028;-85
2021/04/09 00:19:14;;;;;;;11.00;4.45;;;;;;;22.12;15.79;98951.50;5062490;28;20530;-85
2021/04/09 00:21:41;;;;;;;12.90;4.75;;;;;;;22.22;15.62;98941.50;5065449;28;20457;-85
2021/04/09 00:24:08;;;;;;;7.90;4.15;;;;;;;22.34;15.45;98941.88;5074706;28;20040;-85
2021/04/09 00:26:35;;;;;;;10.30;4.60;;;;;;;22.35;15.69;98951.88;5066410;28;20028;-85
2021/04/09 00:29:01;;;;;;;10.57;4.75;;;;;;;22.36;16.03;98950.66;5068222;28;20025;-85
2021/04/09 00:31:27;;;;;;;7.85;3.83;;;;;;;22.11;16.17;98949.09;5068166;28;20068;-85
2021/04/09 00:33:53;;;;;;;9.75;4.18;;;;;;;22.20;16.13;98949.47;5058181;28;20025;-85
2021/04/09 00:36:19;;;;;;;7.20;3.88;;;;;;;22.22;16.18;98947.88;5062512;28;20100;-85
2021/04/09 00:38:46;;;;;;;7.63;3.78;;;;;;;22.15;15.56;98947.88;5060693;28;20032;-85
2021/04/09 00:41:13;;;;;;;11.60;4.00;;;;;;;22.15;15.74;98950.69;5073676;28;20032;-85
2021/04/09 00:43:40;;;;;;;8.70;4.30;;;;;;;22.31;15.50;98953.88;5065292;28;20443;-85
2021/04/09 00:46:07;;;;;;;8.95;4.13;;;;;;;22.01;15.57;98953.47;5063882;28;20032;-85
2021/04/09 00:48:34;;;;;;;10.63;4.30;;;;;;;22.07;15.57;98948.28;5069017;28;20056;-85
2021/04/09 00:51:00;;;;;;;7.88;3.42;;;;;;;22.15;15.19;98947.88;5068837;28;20013;-85
2021/04/09 00:53:27;;;;;;;7.60;3.03;;;;;;;22.19;15.29;98959.09;5051766;28;20544;-85
2021/04/09 00:55:54;;;;;;;9.18;4.00;;;;;;;22.15;15.61;98949.91;5069913;28;20107;-85
2021/04/09 00:58:21;;;;;;;7.10;3.75;;;;;;;22.05;15.97;98947.91;5070825;28;20025;-84
2021/04/09 01:00:48;;;;;;;7.20;3.40;;;;;;;22.02;15.77;98950.31;5061634;28;20120;-85
2021/04/09 01:03:14;;;;;;;6.50;3.05;;;;;;;22.14;15.59;98946.31;5064094;28;20033;-85
2021/04/09 01:05:41;;;;;;;7.82;4.15;;;;;;;22.03;15.59;98942.72;5068100;28;20029;-84
2021/04/09 01:08:08;;;;;;;6.28;3.33;;;;;;;21.67;15.96;98952.22;5063846;28;20374;-85
2021/04/09 01:10:34;;;;;;;11.80;5.22;;;;;;;21.80;16.41;98951.44;5064639;28;20061;-84
2021/04/09 01:13:00;;;;;;;10.25;3.92;;;;;;;21.64;16.36;98939.84;5064701;28;20032;-84
2021/04/09 01:15:26;;;;;;;6.70;3.20;;;;;;;21.84;15.84;98948.69;5083061;28;20074;-85
2021/04/09 01:18:05;;;;;;;7.85;3.05;;;;;;;22.00;15.68;98955.50;5089312;28;20093;-84
2021/04/09 01:20:40;;;;;;;7.35;3.53;;;;;;;22.04;16.10;98944.28;5084654;28;20077;-84
2021/04/09 01:23:37;;;;;;;8.18;3.47;;;;;;;21.92;15.68;98944.69;5090039;28;20066;-84
2021/04/09 01:26:36;;;;;;;11.45;4.10;;;;;;;21.21;16.62;98946.53;5084221;28;20040;-84
2021/04/09 01:29:32;;;;;;;5.68;3.22;;;;;;;21.06;16.52;98945.66;5095640;28;20024;-84
2021/04/09 01:32:04;;;;;;;10.93;4.55;;;;;;;21.40;16.38;98939.81;5093666;28;20044;-84
2021/04/09 01:34:34;;;;;;;12.07;4.40;;;;;;;21.42;16.22;98948.59;5091719;28;20042;-84
2021/04/09 01:37:10;;;;;;;10.65;5.32;;;;;;;21.27;15.96;98940.16;5092842;28;20032;-84
2021/04/09 01:39:50;;;;;;;8.38;4.03;;;;;;;21.26;15.84;98941.34;5084066;28;20617;-84
2021/04/09 01:42:19;;;;;;;10.80;4.63;;;;;;;21.38;16.02;98940.19;5096338;28;20110;-85
2021/04/09 01:44:50;;;;;;;7.40;4.72;;;;;;;21.32;16.24;98939.78;5091584;28;20059;-85
2021/04/09 01:47:19;;;;;;;6.88;2.80;;;;;;;21.05;16.73;98932.88;5093690;28;20036;-85
2021/04/09 01:49:47;;;;;;;9.43;3.50;;;;;;;21.38;16.29;98939.41;5091927;28;20028;-85
2021/04/09 01:52:14;;;;;;;9.82;4.10;;;;;;;21.44;16.62;98937.81;5093379;28;20483;-85
2021/04/09 01:54:43;;;;;;;6.53;3.03;;;;;;;21.58;16.28;98943.44;5084510;28;20054;-85
2021/04/09 01:57:11;;;;;;;6.22;2.97;;;;;;;21.60;15.97;98936.25;5094121;28;20036;-85
2021/04/09 01:59:40;;;;;;;4.78;3.25;;;;;;;21.73;16.06;98937.44;5086043;28;20055;-85
2021/04/09 02:02:08;;;;;;;7.57;3.58;;;;;;;21.43;15.85;98934.22;5087525;28;20040;-85
2021/04/09 02:04:36;;;;;;;5.55;2.67;;;;;;;21.46;16.17;98935.41;5074500;28;20089;-85
2021/04/09 02:07:03;;;;;;;8.65;3.88;;;;;;;21.38;16.00;98936.59;5097023;28;20446;-85
2021/04/09 02:09:31;;;;;;;9.70;3.65;;;;;;;21.46;15.72;98933.41;5104084;28;20024;-85
2021/04/09 02:11:59;;;;;;;5.95;3.28;;;;;;;21.57;15.48;98931.44;5097525;28;20036;-84
2021/04/09 02:14:26;;;;;;;8.05;3.92;;;;;;;21.19;15.84;98932.16;5096034;28;20044;-84
2021/04/09 02:16:54;;;;;;;9.07;3.58;;;;;;;20.93;16.01;98936.03;5097635;28;20087;-84
2021/04/09 02:19:23;;;;;;;10.77;4.10;;;;;;;21.17;16.03;98934.53;5095764;28;20103;-84
2021/04/09 02:21:50;;;;;;;6.13;3.65;;;;;;;21.01;16.22;98934.84;5101290;28;20537;-84
2021/04/09 02:24:16;;;;;;;10.35;3.95;;;;;;;20.91;16.72;98924.41;5095159;28;20036;-84
2021/04/09 02:26:43;;;;;;;9.93;3.83;;;;;;;21.34;16.08;98926.22;5087966;28;20373;-84
2021/04/09 02:29:09;;;;;;;8.10;3.33;;;;;;;21.40;15.98;98937.00;5091993;28;20103;-84
2021/04/09 02:31:37;;;;;;;8.52;3.78;;;;;;;21.24;16.21;98932.56;5094082;28;20036;-84
2021/04/09 02:34:03;;;;;;;6.35;3.90;;;;;;;20.90;16.73;98928.44;5078330;28;20044;-84
2021/04/09 02:36:31;;;;;;;8.05;3.33;;;;;;;20.88;16.72;98928.03;5094554;28;20032;-83
2021/04/09 02:39:12;;;;;;;6.35;3.30;;;;;;;20.85;16.56;98922.41;5089937;28;20036;-84
2021/04/09 02:41:47;;;;;;;7.43;3.33;;;;;;;20.96;16.54;98920.44;5094752;28;20094;-84
2021/04/09 02:44:15;;;;;;;7.63;3.78;;;;;;;21.05;16.48;98927.31;5089606;28;20047;-84
2021/04/09 02:46:55;;;;;;;7.75;3.22;;;;;;;20.88;16.75;98922.44;5092825;28;20052;-84
2021/04/09 02:49:42;;;;;;;8.93;3.88;;;;;;;20.67;16.63;98916.75;5096541;28;20484;-83
2021/04/09 02:52:18;;;;;;;7.82;3.22;;;;;;;20.73;16.73;98914.38;5093290;28;20028;-84
2021/04/09 02:54:52;;;;;;;5.07;2.60;;;;;;;20.86;16.67;98916.44;5094857;28;20035;-84
2021/04/09 02:57:23;;;;;;;4.68;2.90;;;;;;;20.66;16.56;98910.38;5093491;28;20051;-84
2021/04/09 02:59:55;;;;;;;4.43;1.90;;;;;;;20.78;16.61;98919.56;5093179;28;20020;-84
2021/04/09 03:02:23;;;;;;;7.05;2.83;;;;;;;21.11;16.25;98922.16;5091658;28;20059;-84
2021/04/09 03:04:51;;;;;;;6.45;3.00;;;;;;;21.43;15.75;98922.22;5089192;28;20093;-89
2021/04/09 03:07:18;;;;;;;7.20;3.55;;;;;;;21.19;15.95;98915.41;5098296;28;20058;-87
2021/04/09 03:09:44;;;;;;;7.57;3.42;;;;;;;21.07;15.97;98921.34;5082694;28;20028;-87
2021/04/09 03:12:15;;;;;;;6.95;3.03;;;;;;;20.86;16.11;98916.44;5093504;28;20039;-86
2021/04/09 03:14:42;;;;;;;;;;;;;;;20.72;16.54;98910.00;5096007;28;20123;-86
2021/04/09 03:17:17;;;;;;;7.25;3.05;;;;;;;20.74;16.17;98910.41;5093477;28;19923;-86
2021/04/09 03:19:43;;;;;;;5.05;2.35;;;;;;;21.00;16.33;98910.13;5084021;28;20028;-86
2021/04/09 03:22:11;;;;;;;4.85;2.60;;;;;;;20.97;16.31;98919.28;5094109;28;20028;-87
2021/04/09 03:24:37;;;;;;;8.15;3.42;;;;;;;20.91;16.00;98913.25;5093130;28;20035;-87
2021/04/09 03:27:08;;;;;;;6.15;3.00;;;;;;;20.75;16.50;98915.56;5099838;28;20101;-87
2021/04/09 03:29:34;;;;;;;5.88;2.30;;;;;;;20.90;15.92;98914.47;5092969;28;20037;-88
2021/04/09 03:32:00;;;;;;;5.85;3.13;;;;;;;20.70;16.12;98906.81;5102869;28;20409;-88
2021/04/09 03:34:27;;;;;;;7.78;3.20;;;;;;;20.44;16.74;98907.84;5095628;28;20054;-88
2021/04/09 03:36:53;;;;;;;6.82;2.60;;;;;;;20.46;16.64;98914.66;5095009;28;20032;-87
2021/04/09 03:39:19;;;;;;;8.48;2.97;;;;;;;20.32;16.76;98903.41;5091337;28;20479;-88
2021/04/09 03:41:45;;;;;;;4.72;2.63;;;;;;;20.57;16.59;98903.53;5095431;28;20067;-86
2021/04/09 03:44:11;;;;;;;5.38;2.67;;;;;;;20.72;16.44;98902.44;5098051;28;20107;-87
2021/04/09 03:46:37;;;;;;;4.53;2.45;;;;;;;20.88;16.21;98905.69;5092021;28;20032;-86
2021/04/09 03:49:03;;;;;;;4.63;2.88;;;;;;;20.81;16.06;98902.88;5091612;28;20448;-85
2021/04/09 03:51:30;;;;;;;8.38;3.03;;;;;;;20.63;16.34;98899.97;5094798;28;20107;-87
2021/04/09 03:53:57;;;;;;;4.88;2.40;;;;;;;20.57;16.06;98901.56;5095021;28;20031;-87
2021/04/09 03:56:23;;;;;;;5.93;2.58;;;;;;;20.69;15.96;98906.00;5086420;28;20051;-88
2021/04/09 03:58:50;;;;;;;3.22;2.05;;;;;;;20.71;16.32;98908.38;5074633;28;20040;-90
2021/04/09 04:01:17;;;;;;;3.85;2.20;;;;;;;19.83;17.37;98903.00;5093783;28;20032;-89
2021/04/09 04:03:46;;;;;;;4.72;2.78;;;;;;;20.45;16.99;98915.03;5093721;28;20031;-89
2021/04/09 04:06:12;;;;;;;5.15;2.85;;;;;;;20.87;16.23;98906.88;5094215;28;20057;-89
2021/04/09 04:08:39;;;;;;;7.60;2.92;;;;;;;20.96;16.16;98906.50;5100950;28;20042;-87
2021/04/09 04:11:05;;;;;;;5.47;2.78;;;;;;;21.12;16.04;98909.78;5100773;28;20563;-87
2021/04/09 04:13:31;;;;;;;5.43;2.65;;;;;;;21.25;15.92;98911.03;5092014;28;20054;-87
2021/04/09 04:15:57;;;;;;;5.75;2.47;;;;;;;21.17;16.05;98903.81;5092015;28;20082;-88
2021/04/09 04:18:23;;;;;;;5.00;2.65;;;;;;;21.41;15.61;98907.84;5093812;28;20028;-87
2021/04/09 04:20:49;;;;;;;3.95;2.05;;;;;;;21.73;15.37;98905.91;5094921;28;20038;-88
2021/04/09 04:23:15;;;;;;;4.10;1.80;;;;;;;21.71;15.68;98911.91;5088446;28;20507;-87
2021/04/09 04:25:41;;;;;;;4.32;2.63;;;;;;;21.69;15.59;98905.09;5093471;28;20028;-87
2021/04/09 04:28:07;;;;;;;4.55;1.90;;;;;;;21.70;15.77;98907.53;5090421;28;20024;-87
2021/04/09 04:30:34;;;;;;;4.63;1.75;;;;;;;22.03;15.68;98909.16;5092780;28;20376;-88
2021/04/09 04:33:00;;;;;;;7.20;2.78;;;;;;;22.46;15.16;98907.88;5091149;28;20475;-88
2021/04/09 04:35:26;;;;;;;5.15;2.38;;;;;;;22.55;15.21;98913.84;5101664;28;20032;-89
2021/04/09 04:37:52;;;;;;;5.53;2.55;;;;;;;22.60;15.37;98919.06;5080695;28;20059;-90
2021/04/09 04:40:18;;;;;;;5.53;2.80;;;;;;;23.01;14.94;98910.91;5092515;28;20084;-89
2021/04/09 04:42:44;;;;;;;4.80;2.22;;;;;;;23.08;15.07;98916.50;5090303;28;20399;-88
2021/04/09 04:45:12;;;;;;;5.18;2.63;;;;;;;23.38;14.89;98909.56;5087118;28;20035;-89
2021/04/09 04:47:38;;;;;;;5.38;2.10;;;;;;;22.94;15.42;98910.94;5085654;28;20085;-91
2021/04/09 04:50:05;;;;;;;3.75;1.90;;;;;;;22.91;15.42;98916.56;5089013;28;20024;-89
2021/04/09 04:52:32;;;;;;;5.15;2.50;;;;;;;22.89;15.60;98911.38;5087979;28;20020;-88
2021/04/09 04:54:58;;;;;;;4.15;2.65;;;;;;;22.62;15.89;98922.28;5077141;28;20036;-88
2021/04/09 04:57:24;;;;;;;4.43;2.55;;;;;;;22.25;16.33;98921.09;5088073;28;20157;-86
2021/04/09 04:59:50;;;;;;;4.30;1.63;;;;;;;22.84;16.10;98922.19;5082462;28;20040;-86
2021/04/09 05:02:16;;;;;;;4.82;2.63;;;;;;;22.63;16.22;98909.06;5087946;28;20532;-87
2021/04/09 05:04:42;;;;;;;3.40;2.03;;;;;;;22.78;16.50;98919.00;5089510;28;20101;-87
2021/04/09 05:07:08;;;;;;;7.68;3.17;;;;;;;22.69;16.16;98916.66;5090573;28;20028;-86
2021/04/09 05:09:34;;;;;;;4.63;2.30;;;;;;;22.63;16.33;98911.88;5091984;28;20035;-87
2021/04/09 05:12:00;;;;;;;5.35;2.10;;;;;;;22.25;16.82;98915.50;5087418;28;20032;-84
2021/04/09 05:14:26;;;;;;;4.13;2.22;;;;;;;22.05;17.19;98915.16;5065944;28;20124;-87
2021/04/09 05:16:52;;;;;;;3.53;2.22;;;;;;;22.24;16.97;98914.69;5047142;28;20032;-86
2021/04/09 05:19:19;;;;;;;6.25;2.70;;;;;;;22.41;16.76;98908.28;5062640;28;20068;-86
2021/04/09 05:21:45;;;;;;;5.13;3.25;;;;;;;21.73;17.55;98915.09;5055742;28;20040;-85
2021/04/09 05:24:11;;;;;;;5.88;2.75;;;;;;;21.48;17.70;98919.03;5067022;28;20033;-86
2021/04/09 05:26:37;;;;;;;5.22;2.63;;;;;;;21.85;17.74;98911.94;5061422;28;20029;-86
2021/04/09 05:29:03;;;;;;;5.68;3.03;;;;;;;21.79;17.62;98909.91;5069405;28;20035;-84
2021/04/09 05:31:32;;;;;;;7.72;3.15;;;;;;;21.92;17.83;98905.53;5069550;28;20033;-91
2021/04/09 05:33:58;;;;;;;5.15;2.80;;;;;;;22.26;17.28;98901.13;5066730;28;20036;-88
2021/04/09 05:36:24;;;;;;;4.35;2.40;;;;;;;22.64;17.17;98897.47;5063383;28;20025;-93
2021/04/09 05:38:50;;;;;;;5.35;2.63;;;;;;;22.60;17.56;98896.69;5066694;28;20032;-92
2021/04/09 05:41:17;;;;;;;6.10;2.38;;;;;;;22.61;17.64;98891.88;5060715;28;20030;-87
2021/04/09 05:43:43;;;;;;;3.45;2.25;;;;;;;23.07;17.58;98897.28;5055188;28;20080;-84
2021/04/09 05:46:09;;;;;;;6.50;2.83;;;;;;;22.81;16.91;98893.00;5067409;28;20033;-84
2021/04/09 05:48:35;;;;;;;4.63;1.92;;;;;;;23.51;16.68;98893.88;5058426;28;20033;-85
2021/04/09 05:51:01;;;;;;;5.57;2.47;;;;;;;23.69;16.16;98892.53;5074672;28;20036;-85
2021/04/09 05:53:27;;;;;;;4.90;2.75;;;;;;;23.26;17.35;98906.00;5070728;28;20074;-85
2021/04/09 05:55:53;;;;;;;4.50;2.38;;;;;;;22.97;17.55;98896.13;5073425;28;20029;-85
2021/04/09 05:58:20;;;;;;;3.42;2.35;;;;;;;22.76;17.97;98892.63;5073745;28;20029;-84
2021/04/09 06:00:46;;;;;;;4.30;2.20;;;;;;;22.80;17.65;98882.22;5076895;28;20063;-86
2021/04/09 06:03:12;;;;;;;4.28;1.92;;;;;;;23.46;16.96;98885.88;5070995;28;20033;-86
2021/04/09 06:05:38;;;;;;;7.88;2.13;;;;;;;23.59;16.80;98878.59;5074055;28;20067;-85
2021/04/09 06:08:06;;;;;;;3.95;2.47;;;;;;;;;;5080457;28;20059;-86
2021/04/09 06:10:33;;;;;;;3.63;2.30;;;;;;;24.24;16.26;98884.09;5063837;28;20508;-86
2021/04/09 06:12:59;;;;;;;2.92;2.40;;;;;;;23.73;16.46;98876.50;5056110;28;20037;-87
2021/04/09 06:15:26;;;;;;;3.45;2.20;;;;;;;23.70;16.77;98880.13;5091479;28;20028;-86
2021/04/09 06:17:52;;;;;;;4.47;2.35;;;;;;;23.39;17.36;98875.53;5089813;28;20041;-87
2021/04/09 06:20:19;;;;;;;4.22;2.50;;;;;;;23.74;17.27;98871.66;5089013;28;20028;-87
2021/04/09 06:22:46;;;;;;;6.00;2.35;;;;;;;23.99;16.57;98873.03;5091336;28;20052;-87
2021/04/09 06:25:14;;;;;;;6.90;2.75;;;;;;;23.95;15.96;98875.09;5076685;28;20557;-87
2021/04/09 06:27:40;;;;;;;4.88;2.45;;;;;;;24.00;16.18;98871.03;5091880;28;20035;-87
2021/04/09 06:30:07;;;;;;;6.75;3.22;;;;;;;24.09;16.23;98873.38;5087643;28;20062;-87
2021/04/09 06:32:33;;;;;;;4.00;2.08;;;;;;;24.86;15.24;98863.34;5087867;28;20059;-88
2021/04/09 06:34:59;;;;;;;7.22;2.88;;;;;;;24.98;15.78;98866.41;5093803;28;20028;-87
2021/04/09 06:37:25;;;;;;;6.30;3.08;;;;;;;24.59;15.38;98866.88;5093670;28;20035;-88
2021/04/09 06:39:51;;;;;;;7.55;3.15;;;;;;;23.92;16.46;98875.91;5091584;28;20498;-86
2021/04/09 06:42:18;;;;;;;7.28;2.65;;;;;;;24.06;15.81;98869.44;5091013;28;20104;-87
2021/04/09 06:44:46;;;;;;;6.07;3.13;;;;;;;24.30;16.23;98873.19;5086440;28;20028;-89
2021/04/09 06:47:12;;;;;;;7.90;2.63;;;;;;;24.70;15.85;98861.91;5088014;28;20476;-90
2021/04/09 06:49:40;;;;;;;4.80;2.30;;;;;;;24.31;16.35;98869.19;5082605;28;20036;-90
2021/04/09 06:52:09;;;;;;;5.60;3.33;;;;;;;23.64;16.62;98861.34;5068925;28;20476;-89
2021/04/09 06:54:36;;;;;;;4.07;1.92;;;;;;;24.07;16.88;98856.19;5086539;28;20086;-89
2021/04/09 06:57:03;;;;;;;4.55;2.40;;;;;;;24.67;16.66;98853.50;5090608;28;20032;-89
2021/04/09 06:59:33;;;;;;;4.28;2.28;;;;;;;25.13;15.75;98848.16;5081891;28;20048;-89
2021/04/09 07:02:03;;;;;;;3.72;2.13;;;;;;;24.23;16.07;98853.59;5090212;28;20421;-89
2021/04/09 07:04:29;;;;;;;4.53;2.00;;;;;;;24.68;15.23;98849.50;5091042;28;20036;-89
2021/04/09 07:06:55;;;;;;;3.85;1.80;;;;;;;24.91;15.73;98846.81;5098372;28;20532;-89
2021/04/09 07:09:22;;;;;;;6.60;3.33;;;;;;;24.29;15.88;98849.97;5097281;28;20074;-89
2021/04/09 07:11:52;;;;;;;4.82;2.58;;;;;;;24.12;15.35;98850.13;5083292;28;20033;-90
2021/04/09 07:14:18;;;;;;;7.13;2.17;;;;;;;24.77;15.04;98844.19;5084156;28;20048;-90
2021/04/09 07:17:05;;;;;;;2.55;1.52;;;;;;;25.03;15.46;98849.06;5086660;28;20032;-89
2021/04/09 07:19:33;;;;;;;3.17;1.85;;;;;;;25.17;15.20;98845.28;5087962;28;20058;-89
2021/04/09 07:22:05;;;;;;;2.80;1.52;;;;;;;24.97;15.57;98847.16;5086343;28;20496;-89
2021/04/09 07:24:32;;;;;;;2.83;1.20;;;;;;;24.87;15.54;98851.69;5087246;28;20025;-89
2021/04/09 07:27:00;;;;;;;7.50;3.80;;;;;;;24.24;15.21;98841.19;5087212;28;20123;-90
2021/04/09 07:29:32;;;;;;;4.22;1.95;;;;;;;24.62;15.48;98832.31;5078124;28;20484;-90
2021/04/09 07:31:59;;;;;;;4.30;2.20;;;;;;;24.80;16.19;98843.38;5064797;28;20115;-89
2021/04/09 07:34:32;;;;;;;3.83;1.48;;;;;;;24.29;14.86;98835.13;5083134;28;20105;-90
2021/04/09 07:37:04;;;;;;;4.22;1.55;;;;;;;24.76;14.71;98824.94;5077519;28;20038;-90
2021/04/09 07:39:36;;;;;;;3.92;2.33;;;;;;;24.47;15.66;98828.09;5088353;28;20032;-90
2021/04/09 07:42:06;;;;;;;4.72;2.38;;;;;;;24.74;15.44;98833.75;5084619;28;20044;-89
2021/04/09 07:44:33;;;;;;;3.70;1.95;;;;;;;23.64;15.64;98834.09;5080550;28;20507;-89
2021/04/09 07:47:12;;;;;;;1.73;1.33;;;;;;;24.61;15.19;98833.53;5091699;28;20043;-90
2021/04/09 07:49:39;;;;;;;1.83;1.10;;;;;;;24.72;16.01;98819.34;5083891;28;20048;-89
2021/04/09 07:52:15;;;;;;;1.73;1.10;;;;;;;24.52;15.32;98824.84;5087637;28;20475;-89
2021/04/09 07:54:42;;;;;;;2.05;1.30;;;;;;;24.95;15.24;98825.09;5084266;28;20553;-91
2021/04/09 07:57:08;;;;;;;2.60;1.10;;;;;;;25.39;15.27;98827.66;5081383;28;20098;-90
2021/04/09 07:59:43;;;;;;;3.33;1.00;;;;;;;25.76;14.77;98835.16;5086307;28;20028;-88
2021/04/09 08:02:09;;;;;;;2.97;1.40;;;;;;;25.77;14.04;98819.84;5090034;28;20093;-88
2021/04/09 08:04:39;;;;;;;3.05;1.17;;;;;;;24.83;14.38;98822.88;5087946;28;20032;-87
2021/04/09 08:07:07;;;;;;;2.58;1.00;;;;;;;24.58;15.59;98817.53;5082300;28;20058;-87
2021/04/09 08:09:49;;;;;;;2.28;0.93;;;;;;;24.98;15.58;98824.25;5087397;28;20040;-87
2021/04/09 08:12:29;;;;;;;2.13;1.00;;;;;;;25.40;14.21;98820.81;5086289;28;20055;-88
2021/04/09 08:15:10;;;;;;;1.55;0.85;;;;;;;26.05;13.83;98813.72;5067903;28;20037;-88
2021/04/09 08:17:36;;;;;;;2.17;1.10;;;;;;;24.79;13.65;98810.06;5068005;28;20065;-88
2021/04/09 08:20:10;;;;;;;1.73;0.88;;;;;;;24.74;14.92;98809.28;5051397;28;20437;-88
2021/04/09 08:22:37;;;;;;;1.40;0.80;;;;;;;24.89;15.46;98803.50;5066774;28;20532;-87
2021/04/09 08:25:07;;;;;;;1.80;0.93;;;;;;;25.39;15.49;98805.16;5069224;28;20052;-86
2021/04/09 08:27:35;;;;;;;1.27;0.90;;;;;;;25.44;14.33;98806.72;5064798;28;20086;-88
2021/04/09 08:30:03;;;;;;;3.05;1.10;;;;;;;25.94;14.52;98793.41;5040455;28;20060;-87
2021/04/09 08:32:30;;;;;;;1.00;0.90;;;;;;;25.75;15.09;98804.63;5063725;28;20102;-88
2021/04/09 08:35:00;;;;;;;2.22;1.00;;;;;;;25.88;14.98;98797.16;5065265;28;20037;-88
2021/04/09 08:37:27;;;;;;;3.17;1.00;;;;;;;25.84;14.18;98796.41;5063730;28;20111;-88
2021/04/09 08:39:55;;;;;;;1.65;1.52;;;;;;;25.10;13.90;98795.59;5043200;28;20538;-87
2021/04/09 08:42:21;;;;;;;2.50;1.10;;;;;;;23.40;14.81;98784.66;5062956;28;20032;-87
2021/04/09 08:44:48;;;;;;;3.63;1.50;;;;;;;24.49;14.25;98786.34;5046987;28;20442;-87
2021/04/09 08:47:19;;;;;;;1.65;1.17;;;;;;;25.03;13.89;98778.84;5061814;28;20391;-87
2021/04/09 08:49:45;;;;;;;1.75;0.85;;;;;;;25.24;14.00;98775.69;5062780;28;20097;-87
2021/04/09 08:52:16;;;;;;;2.05;0.80;;;;;;;25.90;14.49;98769.38;5062647;28;20029;-88
2021/04/09 08:54:54;;;;;;;3.42;1.08;;;;;;;25.71;13.11;98773.75;5030351;28;20410;-88
2021/04/09 08:57:35;;;;;;;0.68;0.68;;;;;;;26.60;13.50;98756.75;5061613;28;20035;-88
2021/04/09 09:00:11;;;;;;;3.40;1.30;;;;;;;26.07;13.14;98756.97;5062790;28;20115;-88
2021/04/09 09:02:47;;;;;;;0.80;0.70;;;;;;;25.93;13.71;98758.06;5061781;28;20540;-87
2021/04/09 09:05:19;;;;;;;1.58;1.00;;;;;;;25.78;13.29;98758.75;5060187;28;20065;-87
2021/04/09 09:07:59;;;;;;;2.20;1.08;;;;;;;25.22;13.04;98752.06;5065848;28;20037;-87
2021/04/09 09:10:31;;;;;;;1.48;0.95;;;;;;;25.08;14.41;98746.66;5062791;28;20029;-87
2021/04/09 09:13:11;;;;;;;2.70;1.20;;;;;;;25.21;14.66;98748.44;5061089;28;20485;-87
2021/04/09 09:15:43;;;;;;;1.13;0.80;;;;;;;25.69;14.36;98748.06;5062379;28;20040;-87
2021/04/09 09:18:25;;;;;;;1.80;1.08;;;;;;;26.22;12.73;98747.06;5061867;28;20319;-88
2021/04/09 09:21:11;;;;;;;0.98;0.65;;;;;;;26.90;13.22;98744.44;5059687;28;20075;-87
2021/04/09 09:23:48;;;;;;;1.35;0.80;;;;;;;26.35;12.93;98738.78;5059393;28;20029;-88
2021/04/09 09:26:35;;;;;;;4.15;0.77;;;;;;;25.86;13.24;98729.25;5057715;28;20037;-88
2021/04/09 09:29:43;;;;;;;1.63;0.85;;;;;;;26.38;13.31;98730.25;5037036;28;20047;-87
2021/04/09 09:32:09;;;;;;;3.55;0.98;;;;;;;24.99;13.99;98729.53;5056154;28;20433;-87
2021/04/09 09:34:45;;;;;;;3.63;0.80;;;;;;;26.15;13.15;98726.72;5059563;28;20040;-87
2021/04/09 09:37:16;;;;;;;1.33;1.02;;;;;;;25.98;13.95;98717.38;5052118;28;20043;-88
2021/04/09 09:39:52;;;;;;;1.55;0.90;;;;;;;25.96;12.51;98711.38;5059979;28;20032;-87
2021/04/09 09:42:21;;;;;;;3.50;0.82;;;;;;;25.45;13.33;98711.94;5059559;28;20075;-87
2021/04/09 09:44:47;;;;;;;1.02;0.70;;;;;;;25.80;13.06;98703.66;5067752;28;20377;-87
2021/04/09 09:47:32;;;;;;;1.77;0.70;;;;;;;24.46;13.98;98679.72;5066250;28;20048;-87
2021/04/09 09:52:52;;;;;;;1.77;0.90;;;;;;;26.01;13.92;98688.38;5060989;28;20040;-88
2021/04/09 09:55:32;;;;;;;2.20;0.73;;;;;;;26.36;13.25;98689.69;5069265;28;20443;-87
2021/04/09 09:58:30;;;;;;;2.38;0.80;;;;;;;26.83;12.81;98690.25;5065035;28;20111;-87
2021/04/09 10:01:04;;;;;;;2.00;0.90;;;;;;;26.62;12.28;98681.06;5069928;28;20040;-86
2021/04/09 10:03:37;;;;;;;0.82;0.73;;;;;;;26.42;13.88;98683.09;5052210;28;20078;-87
2021/04/09 10:06:08;;;;;;;2.65;1.10;;;;;;;26.50;14.20;98673.28;5067517;28;20033;-87
2021/04/09 10:08:35;;;;;;;1.58;0.98;;;;;;;27.15;13.49;98670.53;5073093;28;20040;-87
2021/04/09 10:11:14;;;;;;;1.77;0.88;;;;;;;26.70;13.00;98668.38;5064564;28;20514;-86
2021/04/09 10:13:42;;;;;;;2.78;1.20;;;;;;;27.64;12.44;98672.09;5077139;28;20048;-87
2021/04/09 10:16:12;;;;;;;1.75;0.90;;;;;;;26.76;12.05;98667.88;5084165;28;20024;-87
2021/04/09 10:19:06;;;;;;;0.90;0.60;;;;;;;25.75;13.60;98652.72;5065309;28;20036;-87
2021/04/09 10:21:35;;;;;;;2.05;0.80;;;;;;;26.46;12.58;98652.06;5082967;28;20035;-87
2021/04/09 10:24:08;;;;;;;1.50;0.60;;;;;;;26.61;12.48;98631.56;5081322;28;20089;-87
2021/04/09 10:26:36;;;;;;;4.30;1.17;;;;;;;25.80;13.09;98653.03;5076022;28;20083;-87
2021/04/09 10:29:16;;;;;;;2.22;1.00;;;;;;;26.20;13.66;98641.78;5078734;28;20041;-87
2021/04/09 10:31:42;;;;;;;2.42;1.13;;;;;;;26.18;13.18;98628.16;5084112;28;20044;-87
2021/04/09 10:34:08;;;;;;;1.15;0.60;;;;;;;26.98;13.00;98643.63;5087470;28;20035;-87
2021/04/09 10:36:34;;;;;;;1.48;0.85;;;;;;;27.25;12.73;98632.84;5082506;28;20035;-87
2021/04/09 10:39:09;;;;;;;1.83;0.90;;;;;;;27.03;13.27;98635.41;5085048;28;20028;-87
2021/04/09 10:41:38;;;;;;;3.83;1.33;;;;;;;26.56;13.58;98631.28;5084624;28;20032;-87
2021/04/09 10:44:15;;;;;;;1.00;0.90;;;;;;;27.23;13.82;98624.03;5066312;28;20074;-87
2021/04/09 10:46:47;;;;;;;1.48;0.60;;;;;;;25.99;14.94;98617.66;5086096;28;20036;-88
2021/04/09 10:49:20;;;;;;;0.70;0.63;;;;;;;27.43;13.38;98619.09;5092050;28;20093;-87
2021/04/09 10:51:54;;;;;;;4.53;0.88;;;;;;;27.35;13.55;98609.22;5086208;28;20078;-87
2021/04/09 10:54:31;;;;;;;1.90;0.77;;;;;;;28.21;12.21;98608.41;5084786;28;20032;-87
2021/04/09 10:57:00;;;;;;;2.15;0.80;;;;;;;27.84;13.06;98599.38;5085593;28;20037;-87
2021/04/09 10:59:27;;;;;;;1.42;0.90;;;;;;;27.62;13.54;98598.41;5084772;28;20552;-87
2021/04/09 11:01:54;;;;;;;1.13;0.63;;;;;;;28.00;13.40;98610.66;5080498;28;20494;-87
2021/04/09 11:04:22;;;;;;;2.58;0.77;;;;;;;27.73;12.67;98613.00;5067532;28;20548;-87
2021/04/09 11:06:59;;;;;;;0.90;0.63;;;;;;;27.04;13.58;98605.19;5083692;28;20032;-87
2021/04/09 11:09:42;;;;;;;1.30;0.63;;;;;;;27.91;13.03;98604.03;5087169;28;20115;-87
2021/04/09 11:12:28;;;;;;;3.35;0.80;;;;;;;28.50;11.91;98604.25;5085943;28;20033;-87
2021/04/09 11:15:14;;;;;;;1.27;0.80;;;;;;;28.36;12.94;98592.59;5086240;28;20051;-88
2021/04/09 11:17:51;;;;;;;0.95;0.55;;;;;;;28.90;11.99;98593.28;5083142;28;20115;-87
2021/04/09 11:20:25;;;;;;;2.38;1.10;;;;;;;29.11;12.46;98589.75;5084184;28;20643;-87
2021/04/09 11:23:13;;;;;;;1.20;0.80;;;;;;;27.35;11.95;98590.25;5085690;28;20108;-87
2021/04/09 11:25:46;;;;;;;2.00;0.85;;;;;;;28.03;12.67;98589.16;5081758;28;20441;-87
2021/04/09 11:28:29;;;;;;;1.95;1.10;;;;;;;27.66;13.15;98581.38;5089478;28;20043;-87
2021/04/09 11:31:00;;;;;;;1.35;0.88;;;;;;;28.07;12.64;98584.22;5078489;28;20036;-86
2021/04/09 11:33:33;;;;;;;1.13;0.73;;;;;;;27.81;13.39;98577.72;5083971;28;20483;-88
2021/04/09 11:36:17;;;;;;;1.60;0.60;;;;;;;28.11;13.29;98579.25;5088256;28;20376;-87
2021/04/09 11:38:43;;;;;;;1.55;0.57;;;;;;;29.01;12.77;98579.56;5082893;28;20036;-89
2021/04/09 11:41:46;;;;;;;0.90;0.70;;;;;;;28.49;12.35;98565.16;5091901;28;20036;-88
2021/04/09 11:44:27;;;;;;;1.65;0.70;;;;;;;27.51;13.33;98568.91;4970365;28;20400;-88
2021/04/09 11:47:09;;;;;;;0.70;0.55;;;;;;;28.41;13.19;98572.25;5078806;28;20046;-88
2021/04/09 11:49:35;;;;;;;2.05;0.60;;;;;;;29.38;12.55;98572.28;5089399;28;20024;-85
2021/04/09 11:52:03;;;;;;;0.85;0.70;;;;;;;29.06;12.27;98559.22;5089723;28;20036;-88